• Join FlightAware (Why Join?)
  • Login
  • US Flag 
01:23PM EDT


 

Airport Tracker/Info


-or-


 

Live Flight TrackerFlight Track Log ✈ ASQ2522 ✈ 15-May-2013 ✈ KDFW - KSHV

Flight Track Log - Related Links

Times and Time Zones

All times are in EDT time to prevent confusion due to time zone crossing. See the ASQ2522 flight status page for this flight to view local times or setup timezone preferences in your user account.

Time Position Orientation Groundspeed Altitude Reporting Facility
EDT Latitude Longitude Course Direction KTS MPH feet Rate Location/Type
09:00PM 32.8833 -97.0333 107° East 177 204 1,500  Level Dallas / Fort Worth TRACON
09:01PM 32.8667 -96.9667 107° East 240 276 3,800 2,100 Climbing Dallas / Fort Worth TRACON
09:02PM 32.8833 -96.8833 77° East 313 360 5,600 2,400 Climbing Dallas / Fort Worth TRACON
09:04PM 32.9336 -96.6981 72° East 319 367 10,800 1,920 Climbing Fort Worth Center
09:05PM 32.9206 -96.5942 98° East 335 386 11,500 1,260 Climbing Fort Worth Center
09:06PM 32.9008 -96.4608 100° East 372 428 13,400 1,740 Climbing Fort Worth Center
09:07PM 32.8831 -96.3472 101° East 378 435 15,000 1,560 Climbing Fort Worth Center
09:08PM 32.8611 -96.2064 100° East 389 448 16,600 960 Climbing Fort Worth Center
09:09PM 32.8411 -96.0906 102° East 394 453 17,000 180 Climbing Fort Worth Center
09:10PM 32.8164 -95.9328 101° East 422 486 17,000  Level Fort Worth Center
09:11PM 32.7939 -95.8022 102° East 437 503 17,000 -60 Level Fort Worth Center
09:12PM 32.7689 -95.6494 101° East 431 496 16,900 -60 Descending Fort Worth Center
09:13PM 32.7419 -95.5214 104° East 431 496 16,900  Level Fort Worth Center
09:14PM 32.7211 -95.3886 101° East 426 490 16,900  Level Fort Worth Center
09:15PM 32.6981 -95.2508 101° East 420 483 17,000 -420 Climbing Fort Worth Center
09:16PM 32.6747 -95.1133 101° East 420 483 16,100 -960 Descending Fort Worth Center
09:17PM 32.6511 -94.9731 101° East 430 495 15,100 -1,020 Descending Fort Worth Center
09:18PM 32.6253 -94.8358 103° East 430 495 14,100 -1,080 Descending Fort Worth Center
09:19PM 32.5969 -94.6789 102° East 430 495 13,000 -600 Descending Fort Worth Center
09:20PM 32.5781 -94.5758 102° East 421 484 13,000 -300 Level Fort Worth Center
09:21PM 32.5556 -94.4139 99° East 409 471 12,500 -660 Descending Fort Worth Center
09:22PM 32.5522 -94.2736 92° East 421 484 11,600 -900 Descending Fort Worth Center
09:23PM 32.5719 -94.1494 79° East 403 464 10,800 -840 Descending Fort Worth Center
09:23PM 32.5719 -94.1494 79° East 372 428 10,700 -2,220 Descending Fort Worth Center
09:24PM 32.6133 -94.0544 63° Northeast 303 349 8,400 -2,580 Descending Fort Worth Center
09:25PM 32.6483 -93.9642 65° Northeast 307 353 5,800 -2,880 Descending Fort Worth Center
09:26PM 32.5953 -93.9267 149° Southeast 188 216 2,900 -1,920 Descending Fort Worth Center
09:27PM 32.5406 -93.9142 169° South 187 215 2,000 -780 Descending Fort Worth Center
09:28PM 32.5019 -93.8786 142° Southeast 182 209 1,400 -660 Descending Fort Worth Center
09:29PM 32.4697 -93.8503 143° Southeast 164 189 700 -540 Descending Fort Worth Center
09:30PM 32.4400 -93.8244 144° Southeast 149 171 400 -300 Descending Fort Worth Center